Latest Weather Observations for Gympie

IDQ60801

Issued at 10:22 pm EST Saturday 19 January 2019 (issued every 10 minutes, with the page automatically refreshed every 10 minutes)

About weather observations | Map of weather stations | Latest weather observations for QLD | Other Formats
Station Details ID: 040093 Name: GYMPIE Lat: -26.18 Lon: 152.64 Height: 64.5 m
Data from the previous 72 hours. | See also: Recent months at Gympie
Date/Time
EST
Temp
°C
App
Temp
°C
Dew
Point
°C
Rel
Hum
%
Delta-T
°C
Wind Press
QNH
hPa
Press
MSL
hPa
Rain since
9am
mm
Dir  Spd
km/h
Gust
km/h
Spd
kts
Gust
kts
19/10:00pm 21.1 24.4 19.2 89 1.2 CALM 0 0 0 0 1017.0 1016.7 0.0
19/09:30pm 21.7 25.1 19.3 86 1.5 CALM 0 0 0 0 1016.6 1016.3 0.0
19/09:00pm 22.0 25.3 19.0 83 1.9 CALM 0 0 0 0 1016.4 1016.1 0.0
19/08:30pm 24.1 27.2 19.4 75 3.0 ENE 2 4 1 2 1016.1 1015.8 0.0
19/08:00pm 24.7 27.3 19.3 72 3.5 NE 4 6 2 3 1015.7 1015.3 0.0
19/07:30pm 25.5 27.9 18.9 67 4.2 ENE 4 7 2 4 1015.4 1015.0 0.0
19/07:00pm 26.6 28.4 18.7 62 5.1 NE 7 17 4 9 1015.0 1014.6 0.0
19/06:30pm 27.9 30.1 19.1 58 5.7 NE 6 13 3 7 1014.6 1014.2 0.0
19/06:00pm 29.1 30.7 19.1 54 6.5 NE 9 17 5 9 1014.4 1014.0 0.0
19/05:30pm 30.8 32.4 19.2 50 7.6 ENE 9 17 5 9 1014.1 1013.7 0.0
19/05:00pm 31.2 33.1 18.9 48 8.0 ENE 7 13 4 7 1013.8 1013.4 0.0
19/04:30pm 31.4 33.2 18.7 46 8.3 NE 7 15 4 8 1013.7 1013.3 0.0
19/04:00pm 31.4 32.7 18.4 46 8.4 ENE 9 15 5 8 1013.8 1013.4 0.0
19/03:30pm 31.2 32.7 18.9 48 8.0 E 9 17 5 9 1014.1 1013.7 0.0
19/03:00pm 31.9 33.7 18.8 45 8.5 NE 7 17 4 9 1014.5 1014.1 0.0
19/02:30pm 31.9 33.4 18.8 45 8.5 E 9 17 5 9 1015.0 1014.6 0.0
19/02:00pm 31.1 32.8 18.1 46 8.4 ENE 6 13 3 7 1015.3 1014.9 0.0
19/01:30pm 31.3 33.6 18.6 46 8.2 NE 4 11 2 6 1015.7 1015.3 0.0
19/01:00pm 30.1 31.7 17.9 48 7.8 NE 6 13 3 7 1016.3 1016.0 0.0
19/12:30pm 29.4 31.2 18.2 51 7.2 NNE 6 9 3 5 1016.7 1016.4 0.0
19/12:00pm 29.5 31.4 18.6 52 7.0 ENE 6 9 3 5 1017.1 1016.8 0.0
19/11:30am 28.3 31.0 19.5 59 5.7 NNE 4 7 2 4 1017.5 1017.2 0.0
19/11:00am 27.6 30.3 19.4 61 5.3 W 4 6 2 3 1017.7 1017.4 0.0
19/10:30am 27.9 31.0 19.4 60 5.5 WSW 2 6 1 3 1017.9 1017.6 0.0
19/10:00am 27.7 30.6 19.8 62 5.2 SSE 4 9 2 5 1018.2 1017.9 0.0
19/09:30am 27.5 30.3 19.6 62 5.1 SSE 4 6 2 3 1018.3 1018.0 0.0
19/09:00am 26.5 29.5 20.1 68 4.2 SSE 4 6 2 3 1018.4 1018.1 0.0
19/08:30am 24.6 27.2 19.2 72 3.5 SE 4 6 2 3 1018.2 1017.9 0.0
19/08:00am 23.9 26.4 19.0 74 3.1 SE 4 6 2 3 1018.3 1018.0 0.0
19/07:30am 23.3 26.1 18.8 76 2.9 SSE 2 4 1 2 1018.2 1017.9 0.0
19/07:00am 21.2 24.4 18.9 87 1.4 CALM 0 4 0 2 1018.0 1017.7 0.0
19/06:30am 18.8 21.7 18.3 97 0.3 CALM 0 0 0 0 1017.7 1017.4 0.0
19/06:00am 18.0 20.7 17.7 98 0.2 CALM 0 0 0 0 1017.5 1017.2 0.0
19/05:30am 17.2 19.5 16.7 97 0.3 CALM 0 0 0 0 1017.0 1016.7 0.0
19/05:00am 17.5 19.9 17.0 97 0.3 CALM 0 0 0 0 1016.9 1016.6 0.0
19/04:30am 17.9 20.5 17.4 97 0.3 CALM 0 0 0 0 1016.7 1016.4 0.0
19/04:00am 17.7 20.1 17.1 96 0.4 CALM 0 0 0 0 1016.5 1016.2 0.0
19/03:30am 17.8 20.1 16.8 94 0.6 CALM 0 0 0 0 1016.2 1015.9 0.0
19/03:00am 18.1 20.6 17.3 95 0.5 CALM 0 0 0 0 1016.2 1015.9 0.0
19/02:30am 18.1 20.5 17.0 93 0.7 CALM 0 0 0 0 1016.3 1016.0 0.0
19/02:00am 18.0 20.4 16.9 93 0.7 CALM 0 0 0 0 1016.3 1016.0 0.0
19/01:30am 18.4 21.0 17.4 94 0.6 CALM 0 0 0 0 1016.4 1016.1 0.0
19/01:00am 18.5 21.1 17.5 94 0.6 CALM 0 0 0 0 1016.7 1016.4 0.0
19/12:30am 19.0 21.6 17.5 91 0.9 CALM 0 0 0 0 1016.8 1016.5 0.0
19/12:00am 19.2 21.9 17.7 91 0.9 CALM 0 0 0 0 1017.1 1016.8 0.0
 
Date/Time
EST
Temp
°C
App
Temp
°C
Dew
Point
°C
Rel
Hum
%
Delta-T
°C
Wind Press
QNH
hPa
Press
MSL
hPa
Rain since
9am
mm
Dir  Spd
km/h
Gust
km/h
Spd
kts
Gust
kts
18/11:30pm 19.8 22.4 17.6 87 1.4 CALM 0 0 0 0 1017.4 1017.1 0.0
18/11:00pm 20.4 22.9 17.2 82 2.0 CALM 0 0 0 0 1017.7 1017.4 0.0
18/10:30pm 20.6 23.1 17.2 81 2.1 CALM 0 0 0 0 1017.6 1017.3 0.0
18/10:00pm 21.4 24.0 17.6 79 2.3 CALM 0 0 0 0 1017.7 1017.4 0.0
18/09:30pm 22.1 24.8 17.7 76 2.7 CALM 0 0 0 0 1017.5 1017.2 0.0
18/09:00pm 22.7 25.5 18.0 75 2.9 CALM 0 0 0 0 1017.3 1017.0 0.0
18/08:30pm 24.2 26.8 17.4 65 4.2 CALM 0 0 0 0 1016.9 1016.6 0.0
18/08:00pm 24.9 26.7 17.4 63 4.7 NE 4 7 2 4 1016.8 1016.5 0.0
18/07:30pm 25.6 27.1 17.5 61 5.1 ENE 6 9 3 5 1016.4 1016.1 0.0
18/07:00pm 26.2 28.1 17.6 59 5.4 ENE 4 9 2 5 1016.0 1015.7 0.0
18/06:30pm 27.1 28.3 17.3 55 6.2 ENE 7 19 4 10 1015.3 1014.9 0.0
18/06:00pm 27.7 28.5 17.3 53 6.5 ENE 9 19 5 10 1014.9 1014.5 0.0
18/05:30pm 29.1 29.7 17.6 50 7.3 ENE 11 24 6 13 1014.4 1014.0 0.0
18/05:00pm 29.4 30.2 18.2 51 7.2 E 11 28 6 15 1014.0 1013.6 0.0
18/04:30pm 29.9 30.8 18.3 49 7.5 ENE 11 26 6 14 1013.8 1013.4 0.0
18/04:00pm 30.6 31.3 18.0 47 8.1 ENE 11 22 6 12 1013.6 1013.2 0.0
18/03:30pm 31.1 31.3 18.5 47 8.2 E 15 28 8 15 1013.7 1013.3 0.0
18/03:00pm 31.6 31.5 17.9 44 8.8 E 15 26 8 14 1013.9 1013.5 0.0
18/02:30pm 30.8 30.6 17.5 45 8.5 ENE 15 30 8 16 1014.1 1013.7 0.0
18/02:00pm 32.4 33.1 17.1 40 9.8 NE 9 26 5 14 1014.2 1013.8 0.0
18/01:30pm 32.2 32.1 16.1 38 10.1 NE 11 20 6 11 1014.4 1014.0 0.0
18/01:00pm 31.7 32.4 16.0 38 9.8 E 7 15 4 8 1014.7 1014.3 0.0
18/12:30pm 32.2 32.4 15.7 37 10.3 NE 9 17 5 9 1014.9 1014.5 0.0
18/12:00pm 30.5 31.4 16.1 41 9.0 ENE 6 9 3 5 1015.6 1015.2 0.0
18/11:30am 30.2 30.5 15.9 42 8.9 E 9 17 5 9 1016.0 1015.7 0.0
18/11:00am 29.3 29.6 16.1 44 8.2 E 9 22 5 12 1016.2 1015.9 0.0
18/10:30am 29.6 30.1 17.4 47 7.7 E 11 17 6 9 1016.5 1016.2 0.0
18/10:00am 28.0 29.7 18.1 55 6.3 ENE 6 13 3 7 1016.7 1016.4 0.0
18/09:30am 29.5 31.2 18.6 52 7.0 ESE 7 17 4 9 1016.8 1016.5 0.0
18/09:00am 27.5 29.6 19.0 59 5.5 SSE 6 9 3 5 1016.9 1016.6 0.0
18/08:30am 26.1 28.4 18.5 63 4.8 SSE 4 9 2 5 1017.1 1016.8 0.0
18/08:00am 25.6 28.0 18.8 66 4.3 SE 4 6 2 3 1017.1 1016.8 0.0
18/07:30am 23.1 25.9 18.8 77 2.7 SSE 2 4 1 2 1016.9 1016.6 0.0
18/07:00am 20.1 23.1 18.4 90 1.1 CALM 0 0 0 0 1016.9 1016.6 0.0
18/06:30am 18.9 21.7 17.9 94 0.6 CALM 0 0 0 0 1016.4 1016.1 0.0
18/06:00am 18.4 21.2 17.9 97 0.3 CALM 0 0 0 0 1015.9 1015.5 0.0
18/05:30am 17.9 20.5 17.6 98 0.2 CALM 0 0 0 0 1015.4 1015.0 0.0
18/05:00am 16.9 19.1 16.6 98 0.2 CALM 0 0 0 0 1015.0 1014.6 0.0
18/04:30am 16.8 18.9 16.3 97 0.3 CALM 0 0 0 0 1014.4 1014.0 0.0
18/04:00am 16.6 18.6 16.1 97 0.3 CALM 0 0 0 0 1014.3 1013.9 0.0
18/03:30am 16.3 18.2 15.7 96 0.4 CALM 0 0 0 0 1014.0 1013.6 0.0
18/03:00am 16.7 18.7 15.9 95 0.5 CALM 0 0 0 0 1013.9 1013.5 0.0
18/02:30am 16.8 18.8 16.0 95 0.5 CALM 0 0 0 0 1014.0 1013.6 0.0
18/02:00am 17.4 19.6 16.6 95 0.5 CALM 0 0 0 0 1014.0 1013.6 0.0
18/01:30am 17.6 19.8 16.6 94 0.6 CALM 0 0 0 0 1014.4 1014.0 0.0
18/01:00am 18.1 20.5 17.0 93 0.7 CALM 0 0 0 0 1014.5 1014.1 0.0
18/12:30am 18.1 20.3 16.4 90 1.0 CALM 0 0 0 0 1014.7 1014.3 0.0
18/12:00am 18.5 20.6 16.3 87 1.3 CALM 0 0 0 0 1014.8 1014.4 0.0
 
Date/Time
EST
Temp
°C
App
Temp
°C
Dew
Point
°C
Rel
Hum
%
Delta-T
°C
Wind Press
QNH
hPa
Press
MSL
hPa
Rain since
9am
mm
Dir  Spd
km/h
Gust
km/h
Spd
kts
Gust
kts
17/11:30pm 18.9 21.1 16.5 86 1.4 CALM 0 0 0 0 1015.2 1014.8 0.0
17/11:00pm 19.2 21.6 17.0 87 1.3 CALM 0 0 0 0 1015.4 1015.0 0.0
17/10:30pm 19.4 21.8 17.0 86 1.5 CALM 0 0 0 0 1015.5 1015.1 0.0
17/10:00pm 19.5 21.9 17.1 86 1.5 CALM 0 0 0 0 1015.5 1015.1 0.0
17/09:30pm 20.7 23.0 16.7 78 2.4 CALM 0 0 0 0 1015.4 1015.0 0.0
17/09:00pm 21.4 24.0 17.4 78 2.5 CALM 0 0 0 0 1015.0 1014.6 0.0
17/08:30pm 22.5 24.9 17.0 71 3.4 CALM 0 0 0 0 1014.7 1014.3 0.0
17/08:00pm 23.9 25.5 16.9 65 4.3 E 4 6 2 3 1014.5 1014.1 0.0
17/07:30pm 24.6 25.6 16.8 62 4.8 ESE 7 11 4 6 1014.2 1013.8 0.0
17/07:00pm 25.3 26.7 16.4 57 5.5 ENE 4 11 2 6 1013.9 1013.5 0.0
17/06:30pm 26.4 26.3 16.1 53 6.3 E 11 20 6 11 1013.6 1013.2 0.0
17/06:00pm 27.7 27.3 16.3 49 7.1 E 13 26 7 14 1013.4 1013.0 0.0
17/05:30pm 28.6 27.8 16.2 47 7.7 ESE 15 20 8 11 1013.0 1012.6 0.0
17/05:00pm 29.7 29.5 15.8 43 8.6 ESE 11 24 6 13 1012.6 1012.2 0.0
17/04:30pm 30.3 29.3 15.6 41 9.1 E 15 24 8 13 1012.3 1011.9 0.0
17/04:00pm 30.5 30.3 15.8 41 9.1 SE 11 17 6 9 1012.3 1011.9 0.0
17/03:30pm 31.2 30.7 16.0 40 9.5 ESE 13 26 7 14 1012.3 1011.9 0.0
17/03:00pm 31.0 30.8 16.6 42 9.1 ESE 13 26 7 14 1012.5 1012.1 0.0
17/02:30pm 30.8 30.5 16.4 42 9.0 ESE 13 28 7 15 1012.7 1012.3 0.0
17/02:00pm 31.1 31.0 17.0 42 8.9 ESE 13 24 7 13 1012.9 1012.5 0.0
17/01:30pm 31.5 32.5 17.8 44 8.8 NE 9 19 5 10 1013.1 1012.7 0.0
17/01:00pm 30.9 32.3 17.9 45 8.3 E 7 13 4 7 1013.4 1013.0 0.0
17/12:30pm 31.1 32.2 18.1 46 8.4 E 9 17 5 9 1013.6 1013.2 0.0
17/12:00pm 30.6 32.0 18.7 49 7.7 ENE 9 19 5 10 1014.0 1013.6 0.0
17/11:30am 30.2 31.4 18.3 49 7.7 E 9 19 5 10 1014.3 1013.9 0.0
17/11:00am 31.4 32.5 18.0 44 8.6 ENE 9 17 5 9 1014.6 1014.2 0.0
17/10:30am 29.2 30.2 17.7 50 7.3 ENE 9 15 5 8 1014.9 1014.5 0.0
17/10:00am 30.0 32.1 19.4 53 6.9 S 7 13 4 7 1015.2 1014.8 0.0
17/09:30am 28.2 29.6 17.7 53 6.7 SSE 7 11 4 6 1015.5 1015.1 0.0
17/09:00am 27.3 30.0 19.4 62 5.1 W 4 7 2 4 1015.5 1015.1 0.0
17/08:30am 26.6 29.6 20.0 67 4.3 NW 4 7 2 4 1015.6 1015.2 0.0
17/08:00am 25.5 28.6 20.3 73 3.4 SE 4 6 2 3 1015.7 1015.3 0.0
17/07:30am 24.1 28.2 20.8 82 2.2 CALM 0 2 0 1 1015.5 1015.1 0.0
17/07:00am 22.2 26.2 20.5 90 1.1 CALM 0 0 0 0 1015.6 1015.2 0.0
17/06:30am 20.8 24.8 20.6 99 0.1 CALM 0 0 0 0 1015.2 1014.8 0.0
17/06:00am 20.1 23.6 19.6 97 0.3 CALM 0 0 0 0 1014.7 1014.3 0.0
17/05:30am 20.1 23.6 19.6 97 0.3 CALM 0 0 0 0 1014.1 1013.7 0.0
17/05:00am 20.2 23.5 19.9 98 0.2 SE 2 4 1 2 1013.7 1013.3 0.0
17/04:30am 20.4 24.0 19.7 96 0.4 CALM 0 0 0 0 1013.6 1013.2 0.0
17/04:00am 20.5 24.1 19.8 96 0.4 CALM 0 0 0 0 1013.3 1012.9 0.0
17/03:30am 20.6 24.3 19.9 96 0.4 CALM 0 0 0 0 1013.1 1012.7 0.0
17/03:00am 20.6 24.2 19.8 95 0.5 CALM 0 0 0 0 1013.0 1012.6 0.0
17/02:30am 20.9 24.6 19.9 94 0.6 CALM 0 0 0 0 1013.1 1012.7 0.0
17/02:00am 21.2 25.0 20.2 94 0.6 CALM 0 0 0 0 1013.2 1012.8 0.0
17/01:30am 21.2 25.1 20.4 95 0.5 CALM 0 0 0 0 1013.5 1013.1 0.0
17/01:00am 21.1 24.9 20.1 94 0.6 CALM 0 0 0 0 1013.8 1013.4 0.0
17/12:30am 21.7 25.6 20.3 92 0.9 CALM 0 0 0 0 1014.0 1013.6 0.0
17/12:00am 21.6 25.5 20.4 93 0.8 CALM 0 2 0 1 1014.3 1013.9 0.0
 
Date/Time
EST
Temp
°C
App
Temp
°C
Dew
Point
°C
Rel
Hum
%
Delta-T
°C
Wind Press
QNH
hPa
Press
MSL
hPa
Rain since
9am
mm
Dir  Spd
km/h
Gust
km/h
Spd
kts
Gust
kts
16/11:30pm 21.6 25.4 20.2 92 0.9 CALM 0 0 0 0 1014.5 1014.1 0.0
16/11:00pm 22.3 26.1 20.2 88 1.4 CALM 0 0 0 0 1014.5 1014.1 0.0
16/10:30pm 22.7 26.8 20.8 89 1.2 CALM 0 0 0 0 1014.6 1014.2 0.0

Other Formats:

Comma delimited format used in spreadsheet applications
http://www.bom.gov.au/fwo/IDQ60801/IDQ60801.94566.axf

JavaScript Object Notation format (JSON) in row-major order
http://www.bom.gov.au/fwo/IDQ60801/IDQ60801.94566.json